メインページ
METAR-TAF:

METAR-TAF

空港 :

Jaffrey, ニューハンプシャー州, アメリカ合衆国

緯度: 42-48-21N, 経度: 072-00-02W, 海抜: 317m

現時点の気象観測

当レポートは28分前の17:52(UTC)に作成
の風 4kt
気温 27°C
湿度 48%
気圧 1022 hPa
視程: 16.1km
高度4800ftの雲はほとんどない

METAR: KAFN 261752Z AUTO 17004KT 10SM FEW048 27/15 A3019 RMK AO2 SLP223 T02720150 10278 20161 58012

時間: 14:20 (18:20 UTC)


TAF: 見つかりません

4,000以上の空港の気象観測と天気予報(METAR報とTAF報)

利用可能な観測所は地図上に黄色い丸と赤い丸で示す。

丸の上にカーソルを重ねると観測所名を参照できる。

次にクリックすると気象観測と天気予報を参照できる。

マップの切り替え:黒色「×」印の緑ボタンをクリックして拡大、「-」印の緑ボタンをクリックして縮小、緑色の三角印をクリックして隣りの地図に切り替え


METAR-TAF: